createdAt,value
2022-09-10T00:01:33.144Z,1.13
2022-09-10T00:04:03.396Z,1.00
2022-09-10T00:06:35.712Z,0.95
2022-09-10T00:09:03.706Z,1.00
2022-09-10T00:11:32.610Z,1.08
2022-09-10T00:14:04.729Z,1.10
2022-09-10T00:16:33.949Z,0.90
2022-09-10T00:19:02.977Z,0.90
2022-09-10T00:21:32.428Z,1.00
2022-09-10T00:24:02.302Z,1.00
2022-09-10T00:26:34.551Z,0.68
2022-09-10T00:29:04.331Z,1.13
2022-09-10T00:31:34.297Z,1.20
2022-09-10T00:34:04.116Z,0.82
2022-09-10T00:36:36.374Z,1.10
2022-09-10T00:39:09.214Z,1.05
2022-09-10T00:41:40.881Z,0.82
2022-09-10T00:44:43.196Z,1.20
2022-09-10T00:47:17.440Z,1.00
2022-09-10T00:49:49.919Z,0.80
2022-09-10T00:52:18.815Z,1.10
2022-09-10T00:54:49.486Z,1.13
2022-09-10T00:57:21.926Z,0.88
2022-09-10T00:59:54.283Z,1.10
2022-09-10T01:02:24.205Z,1.20
2022-09-10T01:04:52.669Z,1.00
2022-09-10T01:07:23.390Z,1.10
2022-09-10T01:09:52.147Z,1.30
2022-09-10T01:12:35.841Z,1.10
2022-09-10T01:15:13.727Z,1.20
2022-09-10T01:18:03.442Z,0.80
2022-09-10T01:20:58.154Z,1.00
2022-09-10T01:23:55.016Z,0.85
2022-09-10T01:26:36.948Z,1.00
2022-09-10T01:29:15.320Z,1.00
2022-09-10T01:31:52.459Z,1.17
2022-09-10T01:34:26.220Z,0.85
2022-09-10T01:36:57.840Z,0.77
2022-09-10T01:39:27.260Z,1.20
2022-09-10T01:41:55.546Z,0.90
2022-09-10T01:44:46.030Z,0.90
2022-09-10T01:47:22.002Z,0.68
2022-09-10T01:50:03.857Z,0.93
2022-09-10T01:52:45.225Z,0.95
2022-09-10T01:55:27.350Z,0.85
2022-09-10T01:58:01.711Z,0.80
2022-09-10T02:00:34.404Z,1.10
2022-09-10T02:03:07.826Z,0.85
2022-09-10T02:05:39.494Z,0.73
2022-09-10T02:08:11.663Z,0.65
2022-09-10T02:10:50.944Z,1.00
2022-09-10T02:13:20.806Z,0.65
2022-09-10T02:15:51.387Z,0.63
2022-09-10T02:18:21.248Z,0.77
2022-09-10T02:20:51.511Z,0.80
2022-09-10T02:23:23.937Z,1.15
2022-09-10T02:25:52.241Z,1.35
2022-09-10T02:28:20.827Z,0.80
2022-09-10T02:30:50.288Z,1.00
2022-09-10T02:33:19.022Z,0.95
2022-09-10T02:35:48.300Z,1.05
2022-09-10T02:38:16.877Z,1.05
2022-09-10T02:40:45.028Z,0.80
2022-09-10T02:43:13.313Z,0.65
2022-09-10T02:45:41.814Z,0.77
2022-09-10T02:48:11.309Z,0.85
2022-09-10T02:50:39.716Z,0.63
2022-09-10T02:53:08.409Z,0.60
2022-09-10T02:55:36.905Z,0.60
2022-09-10T02:58:04.915Z,0.82
2022-09-10T03:00:33.607Z,0.60
2022-09-10T03:03:03.186Z,0.40
2022-09-10T03:05:33.579Z,0.60
2022-09-10T03:08:01.678Z,0.73
2022-09-10T03:10:29.947Z,0.40
2022-09-10T03:12:58.390Z,1.00
2022-09-10T03:15:26.551Z,0.57
2022-09-10T03:17:54.898Z,0.55
2022-09-10T03:20:24.043Z,0.95
2022-09-10T03:22:53.803Z,0.63
2022-09-10T03:25:22.816Z,0.70
2022-09-10T03:27:50.889Z,0.70
2022-09-10T03:30:21.450Z,0.73
2022-09-10T03:32:50.280Z,0.70
2022-09-10T03:35:18.667Z,0.82
2022-09-10T03:37:47.114Z,0.70
2022-09-10T03:40:17.012Z,0.60
2022-09-10T03:42:45.454Z,0.63
2022-09-10T03:45:13.804Z,0.82
2022-09-10T03:47:42.241Z,0.70
2022-09-10T03:50:11.266Z,0.77
2022-09-10T03:52:39.739Z,0.80
2022-09-10T03:55:08.690Z,0.73
2022-09-10T03:57:39.458Z,0.65
2022-09-10T04:00:09.645Z,0.55
2022-09-10T04:02:38.159Z,0.60
2022-09-10T04:05:06.916Z,0.50
2022-09-10T04:07:35.129Z,0.52
2022-09-10T04:10:03.597Z,0.65
2022-09-10T04:12:31.679Z,0.65
2022-09-10T04:15:04.918Z,0.80
2022-09-10T04:17:33.046Z,0.75
2022-09-10T04:20:01.465Z,0.68
2022-09-10T04:22:29.671Z,0.55
2022-09-10T04:24:58.158Z,0.80
2022-09-10T04:27:26.675Z,0.70
2022-09-10T04:29:54.706Z,0.68
2022-09-10T04:32:24.542Z,0.90
2022-09-10T04:34:52.567Z,1.17
2022-09-10T04:37:22.127Z,0.70
2022-09-10T04:39:51.050Z,0.50
2022-09-10T04:42:20.345Z,0.95
2022-09-10T04:44:49.572Z,1.15
2022-09-10T04:47:18.458Z,0.63
2022-09-10T04:49:48.263Z,1.17
2022-09-10T04:52:17.123Z,0.75
2022-09-10T04:54:45.471Z,0.80
2022-09-10T04:57:13.571Z,0.75
2022-09-10T04:59:41.653Z,0.82
2022-09-10T05:02:10.541Z,0.85
2022-09-10T05:04:40.483Z,0.60
2022-09-10T05:07:10.327Z,0.77
2022-09-10T05:09:38.840Z,0.70
2022-09-10T05:12:07.318Z,0.90
2022-09-10T05:14:35.376Z,0.82
2022-09-10T05:17:03.396Z,0.70
2022-09-10T05:19:31.884Z,1.30
2022-09-10T05:22:00.016Z,0.95
2022-09-10T05:24:29.841Z,1.00
2022-09-10T05:26:59.265Z,0.80
2022-09-10T05:29:27.964Z,0.55
2022-09-10T05:31:56.464Z,0.80
2022-09-10T05:34:24.681Z,0.50
2022-09-10T05:36:52.946Z,0.95
2022-09-10T05:39:20.977Z,1.00
2022-09-10T05:41:50.828Z,0.75
2022-09-10T05:44:19.189Z,0.80
2022-09-10T05:46:48.281Z,0.90
2022-09-10T05:49:17.187Z,1.02
2022-09-10T05:51:45.221Z,0.65
2022-09-10T05:54:14.233Z,0.55
2022-09-10T05:56:42.789Z,0.60
2022-09-10T05:59:12.186Z,0.82
2022-09-10T06:01:40.680Z,0.50
2022-09-10T06:04:08.660Z,0.90
2022-09-10T06:06:37.086Z,0.60
2022-09-10T06:09:05.579Z,0.47
2022-09-10T06:11:33.996Z,0.88
2022-09-10T06:14:02.503Z,0.82
2022-09-10T06:16:32.744Z,0.90
2022-09-10T06:19:00.857Z,0.60
2022-09-10T06:21:29.391Z,0.93
2022-09-10T06:23:57.869Z,0.60
2022-09-10T06:26:26.541Z,0.50
2022-09-10T06:28:56.751Z,0.80
2022-09-10T06:31:25.586Z,0.85
2022-09-10T06:33:55.607Z,0.47
2022-09-10T06:36:23.721Z,1.02
2022-09-10T06:38:56.105Z,0.80
2022-09-10T06:41:24.491Z,0.40
2022-09-10T06:43:52.980Z,0.50
2022-09-10T06:49:13.618Z,0.65
2022-09-10T06:51:42.435Z,0.63
2022-09-10T06:54:10.477Z,0.88
2022-09-10T06:56:38.939Z,0.80
2022-09-10T06:59:07.389Z,0.40
2022-09-10T07:01:35.907Z,0.40
2022-09-10T07:04:06.430Z,0.43
2022-09-10T07:06:38.150Z,0.60
2022-09-10T07:09:06.468Z,0.50
2022-09-10T07:11:39.255Z,0.80
2022-09-10T07:14:12.550Z,0.40
2022-09-10T07:16:42.162Z,0.63
2022-09-10T07:19:10.776Z,0.40
2022-09-10T07:21:40.565Z,0.82
2022-09-10T07:24:11.548Z,0.80
2022-09-10T07:26:39.800Z,0.80
2022-09-10T07:29:08.643Z,0.77
2022-09-10T07:31:38.796Z,0.93
2022-09-10T07:34:06.849Z,0.47
2022-09-10T07:36:34.896Z,1.00
2022-09-10T07:39:04.655Z,0.63
2022-09-10T07:41:35.998Z,0.68
2022-09-10T07:44:04.666Z,1.10
2022-09-10T07:46:33.173Z,0.70
2022-09-10T07:49:02.383Z,0.57
2022-09-10T07:51:33.116Z,0.90
2022-09-10T07:54:01.785Z,0.82
2022-09-10T07:56:32.461Z,0.85
2022-09-10T07:59:03.223Z,0.63
2022-09-10T08:01:31.826Z,0.88
2022-09-10T08:04:00.445Z,1.00
2022-09-10T08:06:28.990Z,0.80
2022-09-10T08:08:57.466Z,0.60
2022-09-10T08:11:25.903Z,0.47
2022-09-10T08:13:57.296Z,0.90
2022-09-10T08:16:26.986Z,0.63
2022-09-10T08:18:56.882Z,0.60
2022-09-10T08:21:26.223Z,0.60
2022-09-10T08:23:55.692Z,0.70
2022-09-10T08:26:24.715Z,1.05
2022-09-10T08:28:53.187Z,0.88
2022-09-10T08:31:23.035Z,0.98
2022-09-10T08:33:52.843Z,0.77
2022-09-10T08:36:24.185Z,1.00
2022-09-10T08:38:58.128Z,1.10
2022-09-10T08:41:42.854Z,0.80
2022-09-10T08:44:18.119Z,0.80
2022-09-10T08:46:51.045Z,0.98
2022-09-10T08:49:31.343Z,1.02
2022-09-10T08:52:05.378Z,0.80
2022-09-10T08:54:41.607Z,0.65
2022-09-10T08:57:22.545Z,0.60
2022-09-10T08:59:54.067Z,0.32
2022-09-10T09:02:47.688Z,0.80
2022-09-10T09:05:20.080Z,1.38
2022-09-10T09:07:49.497Z,0.80
2022-09-10T09:10:34.073Z,0.60
2022-09-10T09:13:29.934Z,0.98
2022-09-10T09:16:08.220Z,0.93
2022-09-10T09:18:50.325Z,0.77
2022-09-10T09:21:21.017Z,0.73
2022-09-10T09:24:12.212Z,1.27
2022-09-10T09:26:46.664Z,0.73
2022-09-10T09:29:19.456Z,1.17
2022-09-10T09:31:51.063Z,0.93
2022-09-10T09:34:29.619Z,1.15
2022-09-10T09:37:03.378Z,0.95
2022-09-10T09:39:43.069Z,0.68
2022-09-10T09:42:19.697Z,1.38
2022-09-10T09:44:56.909Z,0.80
2022-09-10T09:47:25.316Z,0.60
2022-09-10T09:49:56.145Z,1.27
2022-09-10T09:52:26.781Z,1.00
2022-09-10T09:55:13.842Z,0.77
2022-09-10T09:57:44.135Z,0.95
2022-09-10T10:00:36.323Z,0.80
2022-09-10T10:03:08.366Z,1.05
2022-09-10T10:05:38.468Z,1.38
2022-09-10T10:08:07.383Z,0.82
2022-09-10T10:10:35.911Z,1.25
2022-09-10T10:13:03.986Z,1.02
2022-09-10T10:15:37.699Z,1.02
2022-09-10T10:18:29.956Z,0.98
2022-09-10T10:21:15.252Z,1.15
2022-09-10T10:23:43.847Z,0.82
2022-09-10T10:26:26.314Z,0.95
2022-09-10T10:28:59.823Z,0.80
2022-09-10T10:31:39.111Z,1.10
2022-09-10T10:34:34.702Z,1.13
2022-09-10T10:37:10.556Z,0.95
2022-09-10T10:40:01.152Z,0.80
2022-09-10T10:42:35.169Z,0.95
2022-09-10T10:45:22.825Z,1.50
2022-09-10T10:47:57.608Z,1.13
2022-09-10T10:50:36.167Z,1.35
2022-09-10T10:53:26.020Z,1.17
2022-09-10T10:56:04.163Z,1.10
2022-09-10T10:59:00.010Z,1.30
2022-09-10T11:01:31.105Z,1.20
2022-09-10T11:04:09.813Z,1.08
2022-09-10T11:06:42.687Z,0.88
2022-09-10T11:09:18.818Z,1.55
2022-09-10T11:11:53.731Z,1.02
2022-09-10T11:14:28.303Z,1.20
2022-09-10T11:17:01.587Z,1.20
2022-09-10T11:19:37.408Z,1.25
2022-09-10T11:22:13.547Z,1.40
2022-09-10T11:24:47.964Z,1.38
2022-09-10T11:27:20.234Z,1.08
2022-09-10T11:29:53.677Z,1.17
2022-09-10T11:32:30.672Z,1.10
2022-09-10T11:35:16.320Z,1.15
2022-09-10T11:38:02.504Z,1.02
2022-09-10T11:40:36.826Z,1.10
2022-09-10T11:43:08.814Z,1.38
2022-09-10T11:45:46.291Z,1.00
2022-09-10T11:48:22.745Z,1.30
2022-09-10T11:50:56.650Z,1.23
2022-09-10T11:53:26.726Z,0.98
2022-09-10T11:56:27.035Z,1.20
2022-09-10T11:59:06.666Z,1.40
2022-09-10T12:01:52.272Z,1.55
2022-09-10T12:04:47.660Z,1.40
2022-09-10T12:07:27.457Z,1.17
2022-09-10T12:10:12.252Z,1.25
2022-09-10T12:12:45.817Z,1.38
2022-09-10T12:15:19.235Z,1.30
2022-09-10T12:17:51.959Z,1.40
2022-09-10T12:20:27.081Z,0.90
2022-09-10T12:22:57.199Z,1.10
2022-09-10T12:25:33.572Z,1.00
2022-09-10T12:28:08.044Z,1.15
2022-09-10T12:31:04.395Z,1.00
2022-09-10T12:34:16.230Z,0.93
2022-09-10T12:37:25.341Z,0.90
2022-09-10T12:40:32.512Z,0.50
2022-09-10T12:43:20.881Z,0.90
2022-09-10T12:46:19.004Z,1.30
2022-09-10T12:48:48.939Z,0.90
2022-09-10T12:51:32.865Z,0.90
2022-09-10T12:54:20.286Z,0.98
2022-09-10T12:57:04.174Z,0.90
2022-09-10T12:59:53.032Z,0.93
2022-09-10T13:02:29.543Z,1.38
2022-09-10T13:05:01.076Z,1.23
2022-09-10T13:07:37.365Z,0.90
2022-09-10T13:10:17.336Z,1.02
2022-09-10T13:12:49.882Z,0.82
2022-09-10T13:15:20.856Z,0.75
2022-09-10T13:18:24.695Z,0.88
2022-09-10T13:20:53.328Z,1.00
2022-09-10T13:23:23.575Z,1.00
2022-09-10T13:25:52.857Z,0.75
2022-09-10T13:29:01.133Z,0.68
2022-09-10T13:31:33.009Z,0.90
2022-09-10T13:34:36.515Z,0.80
2022-09-10T13:37:23.177Z,0.80
2022-09-10T13:40:24.962Z,0.68
2022-09-10T13:43:12.786Z,0.70
2022-09-10T13:45:43.216Z,0.60
2022-09-10T13:48:17.375Z,1.00
2022-09-10T13:51:07.975Z,0.90
2022-09-10T13:53:40.432Z,1.20
2022-09-10T13:56:16.924Z,0.85
2022-09-10T13:58:49.697Z,0.68
2022-09-10T14:01:18.869Z,0.85
2022-09-10T14:03:47.070Z,0.85
2022-09-10T14:06:23.211Z,0.95
2022-09-10T14:08:55.693Z,0.68
2022-09-10T14:11:26.284Z,0.60
2022-09-10T14:13:59.005Z,1.13
2022-09-10T14:16:33.127Z,1.10
2022-09-10T14:19:04.049Z,1.02
2022-09-10T14:21:33.828Z,0.90
2022-09-10T14:24:02.301Z,0.75
2022-09-10T14:26:34.130Z,1.02
2022-09-10T14:29:04.435Z,0.90
2022-09-10T14:31:37.711Z,0.90
2022-09-10T14:34:25.725Z,0.80
2022-09-10T14:36:55.646Z,0.90
2022-09-10T14:39:25.580Z,0.85
2022-09-10T14:42:10.320Z,0.60
2022-09-10T14:44:41.878Z,0.82
2022-09-10T14:47:24.362Z,0.65
2022-09-10T14:49:53.321Z,0.88
2022-09-10T14:52:24.045Z,0.80
2022-09-10T14:54:52.308Z,0.73
2022-09-10T14:57:20.792Z,1.02
2022-09-10T14:59:48.937Z,0.93
2022-09-10T15:02:23.171Z,0.90
2022-09-10T15:04:51.934Z,0.68
2022-09-10T15:07:20.067Z,1.00
2022-09-10T15:09:49.490Z,0.90
2022-09-10T15:12:23.047Z,0.98
2022-09-10T15:14:51.810Z,1.02
2022-09-10T15:17:20.413Z,1.10
2022-09-10T15:19:49.063Z,0.70
2022-09-10T15:22:23.672Z,1.17
2022-09-10T15:25:09.163Z,1.70
2022-09-10T15:27:38.888Z,0.88
2022-09-10T15:30:08.738Z,0.80
2022-09-10T15:32:36.791Z,0.73
2022-09-10T15:35:07.149Z,0.70
2022-09-10T15:37:35.221Z,0.77
2022-09-10T15:40:05.963Z,1.13
2022-09-10T15:42:35.016Z,1.00
2022-09-10T15:45:03.902Z,0.60
2022-09-10T15:47:33.546Z,0.65
2022-09-10T15:50:02.047Z,2.20
2022-09-10T15:52:30.035Z,2.20
2022-09-10T15:54:58.512Z,2.42
2022-09-10T15:57:28.304Z,1.77
2022-09-10T15:59:56.341Z,2.20
2022-09-10T16:02:25.549Z,1.88
2022-09-10T16:04:53.887Z,1.60
2022-09-10T16:07:22.544Z,1.13
2022-09-10T16:09:50.569Z,1.50
2022-09-10T16:12:18.590Z,1.00
2022-09-10T16:14:48.407Z,1.70
2022-09-10T16:17:17.367Z,2.20
2022-09-10T16:19:45.884Z,1.63
2022-09-10T16:22:18.686Z,1.70
2022-09-10T16:24:48.527Z,1.80
2022-09-10T16:27:17.632Z,1.10
2022-09-10T16:29:48.919Z,1.40
2022-09-10T16:32:16.928Z,1.30
2022-09-10T16:34:45.465Z,15.23
2022-09-10T16:37:14.203Z,40.63
2022-09-10T16:39:42.276Z,11.52
2022-09-10T16:42:10.606Z,12.48
2022-09-10T16:44:39.095Z,5.30
2022-09-10T16:47:08.588Z,5.38
2022-09-10T16:49:36.707Z,3.58
2022-09-10T16:52:05.234Z,2.65
2022-09-10T16:54:33.345Z,1.92
2022-09-10T16:57:02.560Z,1.58
2022-09-10T16:59:30.581Z,1.90
2022-09-10T17:02:00.994Z,1.95
2022-09-10T17:04:32.443Z,2.17
2022-09-10T17:07:00.482Z,1.70
2022-09-10T17:09:29.176Z,2.63
2022-09-10T17:11:57.244Z,1.80
2022-09-10T17:14:25.942Z,1.63
2022-09-10T17:16:54.367Z,1.50
2022-09-10T17:19:24.117Z,1.58
2022-09-10T17:21:55.736Z,1.23
2022-09-10T17:24:25.839Z,1.17
2022-09-10T17:26:55.635Z,1.20
2022-09-10T17:29:25.179Z,1.45
2022-09-10T17:31:55.375Z,1.33
2022-09-10T17:34:24.705Z,1.20
2022-09-10T17:36:54.478Z,1.30
2022-09-10T17:39:23.060Z,1.40
2022-09-10T17:41:55.256Z,1.33
2022-09-10T17:44:24.352Z,1.15
2022-09-10T17:46:52.391Z,1.10
2022-09-10T17:49:20.387Z,1.38
2022-09-10T17:51:48.812Z,0.98
2022-09-10T17:54:18.301Z,1.40
2022-09-10T17:56:46.351Z,1.20
2022-09-10T17:59:15.059Z,1.50
2022-09-10T18:01:43.278Z,1.10
2022-09-10T18:04:14.434Z,1.00
2022-09-10T18:06:46.808Z,1.13
2022-09-10T18:09:18.998Z,1.40
2022-09-10T18:11:47.451Z,1.35
2022-09-10T18:14:18.886Z,1.95
2022-09-10T18:16:47.416Z,1.50
2022-09-10T18:19:17.810Z,1.60
2022-09-10T18:21:48.140Z,1.30
2022-09-10T18:24:19.700Z,1.40
2022-09-10T18:26:49.749Z,1.20
2022-09-10T18:29:20.151Z,1.30
2022-09-10T18:31:50.555Z,1.40
2022-09-10T18:34:23.256Z,1.60
2022-09-10T18:36:55.183Z,1.50
2022-09-10T18:39:25.957Z,1.10
2022-09-10T18:41:55.147Z,1.15
2022-09-10T18:44:25.367Z,1.50
2022-09-10T18:46:54.765Z,1.38
2022-09-10T18:49:24.789Z,1.30
2022-09-10T18:51:54.089Z,1.42
2022-09-10T18:54:25.221Z,1.45
2022-09-10T18:56:53.468Z,1.42
2022-09-10T18:59:23.615Z,1.30
2022-09-10T19:01:54.585Z,1.63
2022-09-10T19:04:25.343Z,1.40
2022-09-10T19:06:54.630Z,1.73
2022-09-10T19:09:25.684Z,1.73
2022-09-10T19:11:55.782Z,1.70
2022-09-10T19:14:26.302Z,1.95
2022-09-10T19:16:56.899Z,1.48
2022-09-10T19:19:26.438Z,1.42
2022-09-10T19:21:57.605Z,1.42
2022-09-10T19:24:51.000Z,1.90
2022-09-10T19:27:16.283Z,1.30
2022-09-10T19:29:44.447Z,1.50
2022-09-10T19:32:12.968Z,1.50
2022-09-10T19:34:41.525Z,1.48
2022-09-10T19:37:09.598Z,1.55
2022-09-10T19:39:39.089Z,1.70
2022-09-10T19:42:07.428Z,1.30
2022-09-10T19:44:36.045Z,1.60
2022-09-10T19:47:04.425Z,4.57
2022-09-10T19:49:34.217Z,3.05
2022-09-10T19:52:04.352Z,2.05
2022-09-10T19:54:32.904Z,1.45
2022-09-10T19:57:02.297Z,1.70
2022-09-10T19:59:30.440Z,1.77
2022-09-10T20:01:58.610Z,1.33
2022-09-10T20:04:28.121Z,1.40
2022-09-10T20:06:56.601Z,1.33
2022-09-10T20:09:24.666Z,1.60
2022-09-10T20:11:52.886Z,1.30
2022-09-10T20:14:22.319Z,1.70
2022-09-10T20:16:50.400Z,1.80
2022-09-10T20:19:21.580Z,1.40
2022-09-10T20:21:50.281Z,2.15
2022-09-10T20:24:18.759Z,2.17
2022-09-10T20:26:48.977Z,1.80
2022-09-10T20:29:19.212Z,1.63
2022-09-10T20:31:49.287Z,1.80
2022-09-10T20:34:19.893Z,1.70
2022-09-10T20:36:48.607Z,1.67
2022-09-10T20:39:19.364Z,2.40
2022-09-10T20:41:47.856Z,2.30
2022-09-10T20:44:18.244Z,2.20
2022-09-10T20:46:46.452Z,2.33
2022-09-10T20:49:16.539Z,2.90
2022-09-10T20:51:45.844Z,2.15
2022-09-10T20:54:16.468Z,2.30
2022-09-10T20:56:45.547Z,2.50
2022-09-10T20:59:15.971Z,2.30
2022-09-10T21:01:46.274Z,2.33
2022-09-10T21:04:16.209Z,1.90
2022-09-10T21:06:44.334Z,2.33
2022-09-10T21:09:13.102Z,2.40
2022-09-10T21:11:42.267Z,2.65
2022-09-10T21:14:12.945Z,2.25
2022-09-10T21:16:43.226Z,2.50
2022-09-10T21:19:13.199Z,2.30
2022-09-10T21:21:45.108Z,2.40
2022-09-10T21:24:15.452Z,2.90
2022-09-10T21:26:44.399Z,3.90
2022-09-10T21:29:14.484Z,2.85
2022-09-10T21:31:42.936Z,2.42
2022-09-10T21:34:11.749Z,2.67
2022-09-10T21:36:44.079Z,2.67
2022-09-10T21:39:15.433Z,2.15
2022-09-10T21:41:45.760Z,2.70
2022-09-10T21:44:15.541Z,2.70
2022-09-10T21:46:45.116Z,2.97
2022-09-10T21:49:13.486Z,2.67
2022-09-10T21:51:43.643Z,2.60
2022-09-10T21:54:15.476Z,2.60
2022-09-10T21:56:44.080Z,2.28
2022-09-10T21:59:13.552Z,2.92
2022-09-10T22:01:43.315Z,2.60
2022-09-10T22:04:12.624Z,2.50
2022-09-10T22:06:42.453Z,3.03
2022-09-10T22:09:13.754Z,2.53
2022-09-10T22:11:47.169Z,2.65
2022-09-10T22:14:17.214Z,2.10
2022-09-10T22:16:46.722Z,2.40
2022-09-10T22:19:16.506Z,2.80
2022-09-10T22:21:46.403Z,2.40
2022-09-10T22:24:17.774Z,2.13
2022-09-10T22:26:47.272Z,2.55
2022-09-10T22:29:18.952Z,2.58
2022-09-10T22:31:47.478Z,2.17
2022-09-10T22:34:17.526Z,2.88
2022-09-10T22:36:48.486Z,2.42
2022-09-10T22:39:18.664Z,2.38
2022-09-10T22:41:47.601Z,2.45
2022-09-10T22:44:18.129Z,2.50
2022-09-10T22:46:46.235Z,2.05
2022-09-10T22:49:15.572Z,2.22
2022-09-10T22:51:44.521Z,2.35
2022-09-10T22:54:14.437Z,2.65
2022-09-10T22:56:45.023Z,2.35
2022-09-10T22:59:14.661Z,2.90
2022-09-10T23:01:46.415Z,2.63
2022-09-10T23:04:14.978Z,2.30
2022-09-10T23:06:43.110Z,2.70
2022-09-10T23:09:15.742Z,3.00
2022-09-10T23:11:45.144Z,2.65
2022-09-10T23:14:16.025Z,2.90
2022-09-10T23:16:46.251Z,2.53
2022-09-10T23:19:16.455Z,2.55
2022-09-10T23:21:46.552Z,2.63
2022-09-10T23:24:18.713Z,2.65
2022-09-10T23:26:47.325Z,2.33
2022-09-10T23:29:17.539Z,2.33
2022-09-10T23:31:46.572Z,2.92
2022-09-10T23:34:16.993Z,2.95
2022-09-10T23:36:47.069Z,3.10
2022-09-10T23:39:18.959Z,2.70
2022-09-10T23:41:47.632Z,2.63
2022-09-10T23:44:16.589Z,2.67
2022-09-10T23:46:45.641Z,2.72
2022-09-10T23:49:14.625Z,2.60
2022-09-10T23:51:43.356Z,2.70
2022-09-10T23:54:14.228Z,2.83
2022-09-10T23:56:46.950Z,2.95
2022-09-10T23:59:16.053Z,2.72
